Time;durP1;ratioP1;P1;durP2;ratioP2;P2;SDS_P1;SDS_P2;PMS_P1;PMS_P2;Temp;Humidity;BMP_temperature;BMP_pressure;BME280_temperature;BME280_humidity;BME280_pressure;Samples;Min_cycle;Max_cycle;Signal;HPM_P1;HPM_P2
2022/09/02 00:01:56;;;;;;;15.65;3.95;;;18.30;99.90;;;;;;5037494;28;20029;-60
2022/09/02 00:04:25;;;;;;;10.77;3.25;;;18.30;99.90;;;;;;5020829;28;20049;-59
2022/09/02 00:06:53;;;;;;;17.95;4.57;;;18.30;99.90;;;;;;5009880;28;20080;-59
2022/09/02 00:09:21;;;;;;;11.13;3.15;;;18.30;99.90;;;;;;5020557;28;20045;-59
2022/09/02 00:11:49;;;;;;;12.35;3.30;;;18.30;99.90;;;;;;5037414;28;20042;-59
2022/09/02 00:14:19;;;;;;;15.10;3.70;;;18.30;99.90;;;;;;5019869;28;20042;-60
2022/09/02 00:16:50;;;;;;;10.23;3.72;;;18.20;99.90;;;;;;5001183;28;20052;-59
2022/09/02 00:19:21;;;;;;;9.13;3.05;;;18.20;99.90;;;;;;5020921;28;20060;-60
2022/09/02 00:21:48;;;;;;;10.23;3.80;;;18.30;99.90;;;;;;5019332;28;20037;-59
2022/09/02 00:24:16;;;;;;;14.50;3.25;;;18.30;99.90;;;;;;5036637;28;20044;-59
2022/09/02 00:26:43;;;;;;;10.38;3.40;;;18.20;99.90;;;;;;5019819;28;20026;-60
2022/09/02 00:29:10;;;;;;;11.07;3.22;;;18.30;99.90;;;;;;5036923;28;20034;-59
2022/09/02 00:31:37;;;;;;;8.70;3.40;;;18.20;99.90;;;;;;5019349;28;20026;-59
2022/09/02 00:34:04;;;;;;;9.68;3.25;;;18.20;99.90;;;;;;5036176;28;20041;-59
2022/09/02 00:36:32;;;;;;;9.22;2.54;;;18.30;99.90;;;;;;4671931;28;10001524;-60
2022/09/02 00:38:58;;;;;;;5.22;3.33;;;18.20;99.90;;;;;;5019079;28;20081;-59
2022/09/02 00:41:27;;;;;;;9.35;3.20;;;18.20;99.90;;;;;;5035648;28;20031;-60
2022/09/02 00:43:57;;;;;;;9.15;3.00;;;18.30;99.90;;;;;;5019516;28;20030;-60
2022/09/02 00:46:24;;;;;;;14.52;4.13;;;18.30;99.90;;;;;;5036810;28;20022;-60
2022/09/02 00:49:23;;;;;;;7.15;2.90;;;18.30;99.90;;;;;;5036071;28;20042;-59
2022/09/02 00:51:59;;;;;;;15.80;4.68;;;18.30;99.90;;;;;;5022317;28;20265;-60
2022/09/02 00:54:26;;;;;;;13.23;4.07;;;18.30;99.90;;;;;;5036343;28;20034;-60
2022/09/02 00:56:53;;;;;;;12.00;3.28;;;18.30;99.90;;;;;;5036643;28;20057;-59
2022/09/02 00:59:43;;;;;;;7.88;3.47;;;18.30;99.90;;;;;;5020039;28;20044;-59
2022/09/02 01:02:10;;;;;;;11.18;3.22;;;18.20;99.90;;;;;;5006195;28;20100;-59
2022/09/02 01:04:38;;;;;;;13.23;2.95;;;18.20;99.90;;;;;;5019453;28;20066;-59
2022/09/02 01:07:05;;;;;;;9.70;3.20;;;18.10;99.90;;;;;;5036635;28;20065;-60
2022/09/02 01:09:32;;;;;;;7.15;3.00;;;18.10;99.90;;;;;;5003531;28;20061;-59
2022/09/02 01:12:02;;;;;;;13.18;3.55;;;18.10;99.90;;;;;;5036553;28;20026;-59
2022/09/02 01:14:29;;;;;;;11.95;3.80;;;18.00;99.90;;;;;;5036161;28;20030;-59
2022/09/02 01:16:58;;;;;;;13.88;3.33;;;18.00;99.90;;;;;;5019690;28;20080;-59
2022/09/02 01:19:32;;;;;;;13.23;3.45;;;18.00;99.90;;;;;;5036149;28;20073;-60
2022/09/02 01:21:59;;;;;;;5.72;2.50;;;18.00;99.90;;;;;;5020124;28;20050;-58
2022/09/02 01:24:28;;;;;;;11.60;3.17;;;17.90;99.90;;;;;;5021836;28;20037;-59
2022/09/02 01:26:56;;;;;;;11.75;3.00;;;17.90;99.90;;;;;;5019330;28;20061;-60
2022/09/02 01:29:23;;;;;;;10.18;3.08;;;18.00;99.90;;;;;;5019056;28;20030;-60
2022/09/02 01:31:50;;;;;;;12.55;3.47;;;18.00;99.90;;;;;;5036469;28;20089;-60
2022/09/02 01:34:17;;;;;;;8.52;2.88;;;18.00;99.90;;;;;;5036173;28;20069;-60
2022/09/02 01:36:44;;;;;;;7.95;3.35;;;18.00;99.90;;;;;;5019655;28;20225;-59
2022/09/02 01:39:11;;;;;;;11.32;3.45;;;18.00;99.90;;;;;;5036072;28;20057;-60
2022/09/02 01:41:38;;;;;;;10.60;2.80;;;18.00;99.90;;;;;;5019389;28;20030;-59
2022/09/02 01:44:05;;;;;;;5.95;2.58;;;18.00;99.90;;;;;;5023109;28;20034;-60
2022/09/02 01:46:32;;;;;;;7.75;2.28;;;18.00;99.90;;;;;;5040073;28;20030;-59
2022/09/02 01:48:59;;;;;;;4.20;2.40;;;18.00;99.90;;;;;;5039806;28;20068;-59
2022/09/02 01:51:26;;;;;;;7.30;2.88;;;18.00;99.90;;;;;;5039952;28;20065;-61
2022/09/02 01:53:53;;;;;;;14.85;2.50;;;18.00;99.90;;;;;;5039925;28;20069;-60
2022/09/02 01:56:19;;;;;;;9.88;2.83;;;18.00;99.90;;;;;;5022729;28;20034;-60
2022/09/02 01:58:46;;;;;;;7.88;2.60;;;18.00;99.90;;;;;;5039829;28;20030;-60
2022/09/02 02:01:14;;;;;;;6.20;2.40;;;18.00;99.90;;;;;;5039692;28;20038;-60
2022/09/02 02:03:41;;;;;;;11.15;3.17;;;18.00;99.90;;;;;;5039556;28;20026;-60
2022/09/02 02:06:10;;;;;;;8.05;2.58;;;18.00;99.90;;;;;;5022644;28;20034;-60
2022/09/02 02:08:37;;;;;;;11.15;2.50;;;18.00;99.90;;;;;;5006604;28;20030;-60
2022/09/02 02:11:04;;;;;;;7.00;2.67;;;18.00;99.90;;;;;;5039461;28;20042;-60
2022/09/02 02:13:32;;;;;;;6.78;2.47;;;18.00;99.90;;;;;;5022379;28;20028;-60
2022/09/02 02:15:58;;;;;;;9.40;2.72;;;18.00;99.90;;;;;;5039476;28;20034;-60
2022/09/02 02:18:25;;;;;;;10.57;2.72;;;18.00;99.90;;;;;;5022836;28;20069;-60
2022/09/02 02:20:52;;;;;;;13.68;2.72;;;18.00;99.90;;;;;;5039230;28;20442;-60
2022/09/02 02:23:19;;;;;;;6.28;2.30;;;18.00;99.90;;;;;;5021200;28;20025;-60
2022/09/02 02:25:46;;;;;;;9.32;2.60;;;18.00;99.90;;;;;;5022414;28;20033;-60
2022/09/02 02:28:13;;;;;;;5.25;2.40;;;18.00;99.90;;;;;;5039355;28;20033;-60
2022/09/02 02:30:40;;;;;;;14.65;2.83;;;18.00;99.90;;;;;;5022055;28;20033;-60
2022/09/02 02:33:07;;;;;;;11.55;2.97;;;18.00;99.90;;;;;;5039075;28;20037;-60
2022/09/02 02:35:34;;;;;;;6.10;1.73;;;18.10;99.90;;;;;;5021899;28;20030;-60
2022/09/02 02:38:00;;;;;;;7.68;2.20;;;18.10;99.90;;;;;;5038836;28;20032;-60
2022/09/02 02:40:29;;;;;;;8.05;2.42;;;18.00;99.90;;;;;;5039132;28;20030;-60
2022/09/02 02:42:57;;;;;;;6.13;2.28;;;18.00;99.90;;;;;;5022099;28;20121;-60
2022/09/02 02:45:24;;;;;;;12.55;2.22;;;18.00;99.90;;;;;;5039129;28;20029;-60
2022/09/02 02:47:51;;;;;;;6.55;2.65;;;18.00;99.90;;;;;;5022050;28;20060;-60
2022/09/02 02:50:19;;;;;;;11.10;2.20;;;18.00;99.90;;;;;;5038789;28;20046;-61
2022/09/02 02:52:46;;;;;;;9.07;2.17;;;18.00;99.90;;;;;;5021870;28;20046;-60
2022/09/02 02:55:13;;;;;;;10.30;2.90;;;18.00;99.90;;;;;;5037846;28;20022;-59
2022/09/02 02:57:41;;;;;;;19.30;3.17;;;18.00;99.90;;;;;;5021870;28;20050;-59
2022/09/02 03:00:18;;;;;;;12.02;2.30;;;18.00;99.90;;;;;;5028190;28;20041;-59
2022/09/02 03:02:45;;;;;;;8.32;2.10;;;18.00;99.90;;;;;;5027818;28;20037;-59
2022/09/02 03:05:13;;;;;;;13.88;2.90;;;18.00;99.90;;;;;;5038583;28;20054;-59
2022/09/02 03:07:40;;;;;;;8.20;2.80;;;18.00;99.90;;;;;;5021647;28;20026;-59
2022/09/02 03:10:08;;;;;;;7.25;2.80;;;18.00;99.90;;;;;;5021882;28;20053;-59
2022/09/02 03:12:36;;;;;;;11.38;2.70;;;18.00;99.90;;;;;;5015383;28;20093;-60
2022/09/02 03:15:03;;;;;;;6.38;2.78;;;18.00;99.90;;;;;;5037367;28;20045;-59
2022/09/02 03:17:30;;;;;;;9.23;2.50;;;18.00;99.90;;;;;;5021658;28;20029;-60
2022/09/02 03:19:58;;;;;;;14.23;3.45;;;18.00;99.90;;;;;;5038424;28;20316;-60
2022/09/02 03:22:26;;;;;;;12.80;3.70;;;17.90;99.90;;;;;;5038180;28;20033;-59
2022/09/02 03:24:52;;;;;;;9.52;2.67;;;17.90;99.90;;;;;;5038185;28;20042;-60
2022/09/02 03:27:19;;;;;;;10.90;2.67;;;17.80;99.90;;;;;;5037902;28;20046;-60
2022/09/02 03:29:46;;;;;;;8.98;2.80;;;17.80;99.90;;;;;;5038172;28;20034;-60
2022/09/02 03:32:13;;;;;;;9.13;3.25;;;17.90;99.90;;;;;;5037728;28;20050;-60
2022/09/02 03:34:41;;;;;;;10.95;2.83;;;17.90;99.90;;;;;;5037621;28;20057;-60
2022/09/02 03:37:08;;;;;;;11.35;3.22;;;17.90;99.90;;;;;;5038015;28;20044;-59
2022/09/02 03:39:36;;;;;;;8.30;2.42;;;17.90;99.90;;;;;;5037582;28;20030;-60
2022/09/02 03:42:04;;;;;;;16.05;3.65;;;17.90;99.90;;;;;;5037810;28;20072;-60
2022/09/02 03:44:33;;;;;;;6.57;2.90;;;17.80;99.90;;;;;;5037484;28;20024;-60
2022/09/02 03:46:59;;;;;;;14.93;3.35;;;17.80;99.90;;;;;;5037663;28;20216;-59
2022/09/02 03:49:27;;;;;;;20.33;3.03;;;17.80;99.90;;;;;;5037569;28;20022;-59
2022/09/02 03:51:53;;;;;;;8.15;2.22;;;17.80;99.90;;;;;;5037709;28;20046;-59
2022/09/02 03:54:20;;;;;;;9.85;2.50;;;17.90;99.90;;;;;;5020143;28;20037;-59
2022/09/02 03:56:47;;;;;;;14.48;3.03;;;17.90;99.90;;;;;;5037252;28;20048;-60
2022/09/02 03:59:18;;;;;;;12.05;2.80;;;17.90;99.90;;;;;;5020982;28;20045;-59
2022/09/02 04:01:45;;;;;;;7.22;2.88;;;17.90;99.90;;;;;;5034045;28;20038;-60
2022/09/02 04:04:12;;;;;;;5.00;2.75;;;17.90;99.90;;;;;;5030000;28;20285;-59
2022/09/02 04:06:39;;;;;;;8.07;3.40;;;17.90;99.90;;;;;;5026145;28;20037;-59
2022/09/02 04:09:06;;;;;;;8.63;2.90;;;18.00;99.90;;;;;;5013124;28;20159;-59
2022/09/02 04:11:33;;;;;;;5.93;2.72;;;18.00;99.90;;;;;;5036595;28;20049;-60
2022/09/02 04:14:00;;;;;;;11.88;3.85;;;17.90;99.90;;;;;;5016559;28;20058;-60
2022/09/02 04:16:27;;;;;;;10.90;2.88;;;17.90;99.90;;;;;;5016357;28;20073;-59
2022/09/02 04:18:56;;;;;;;10.13;2.80;;;17.90;99.90;;;;;;5017212;28;20034;-59
2022/09/02 04:21:25;;;;;;;9.82;3.10;;;17.90;99.90;;;;;;4980500;28;20066;-59
2022/09/02 04:23:52;;;;;;;12.52;2.60;;;17.90;99.90;;;;;;5014408;28;20042;-59
2022/09/02 04:26:19;;;;;;;9.98;3.03;;;17.80;99.90;;;;;;5015685;28;20026;-59
2022/09/02 04:28:47;;;;;;;6.28;2.83;;;17.80;99.90;;;;;;5016936;28;20034;-60
2022/09/02 04:31:16;;;;;;;12.95;3.85;;;17.80;99.90;;;;;;4999046;28;20046;-60
2022/09/02 04:33:43;;;;;;;8.35;2.88;;;17.80;99.90;;;;;;5016840;28;20057;-60
2022/09/02 04:36:11;;;;;;;13.27;3.15;;;17.80;99.90;;;;;;5016838;28;20026;-60
2022/09/02 04:38:40;;;;;;;13.80;3.78;;;17.80;99.90;;;;;;5016707;28;20035;-60
2022/09/02 04:41:09;;;;;;;7.45;3.08;;;17.80;99.90;;;;;;5016708;28;20030;-60
2022/09/02 04:43:36;;;;;;;8.57;2.92;;;17.80;99.90;;;;;;5006411;28;20054;-61
2022/09/02 04:46:12;;;;;;;8.50;3.67;;;17.80;99.90;;;;;;5015686;28;20054;-59
2022/09/02 04:48:41;;;;;;;8.82;3.58;;;17.80;99.90;;;;;;5016278;28;20085;-59
2022/09/02 04:51:12;;;;;;;13.20;4.40;;;17.80;99.90;;;;;;5015505;28;20058;-59
2022/09/02 04:53:40;;;;;;;14.65;4.18;;;17.80;99.90;;;;;;5015941;28;20031;-60
2022/09/02 04:56:10;;;;;;;16.73;3.83;;;17.80;99.90;;;;;;5015877;28;20041;-61
2022/09/02 04:58:37;;;;;;;15.60;4.38;;;17.80;99.90;;;;;;5016020;28;20026;-61
2022/09/02 05:01:09;;;;;;;11.65;2.90;;;17.80;99.90;;;;;;5015113;28;20065;-61
2022/09/02 05:03:37;;;;;;;9.77;3.35;;;17.80;99.90;;;;;;5016292;28;20030;-60
2022/09/02 05:06:06;;;;;;;5.75;3.40;;;17.80;99.90;;;;;;5015702;28;20053;-59
2022/09/02 05:08:35;;;;;;;7.78;3.22;;;17.80;99.90;;;;;;5015800;28;20038;-59
2022/09/02 05:11:09;;;;;;;13.18;4.65;;;17.80;99.90;;;;;;5016036;28;20168;-60
2022/09/02 05:13:39;;;;;;;9.43;3.35;;;17.70;99.90;;;;;;5019037;28;20034;-60
2022/09/02 05:16:06;;;;;;;16.52;3.40;;;17.70;99.90;;;;;;5035892;28;20060;-60
2022/09/02 05:18:33;;;;;;;13.32;3.97;;;17.70;99.90;;;;;;5018259;28;20065;-59
2022/09/02 05:21:05;;;;;;;11.75;4.18;;;17.70;99.90;;;;;;5036129;28;20072;-61
2022/09/02 05:23:32;;;;;;;13.25;3.97;;;17.70;99.90;;;;;;5035135;28;20034;-60
2022/09/02 05:26:02;;;;;;;8.95;3.95;;;17.60;99.90;;;;;;5018376;28;20041;-59
2022/09/02 05:28:29;;;;;;;9.63;3.70;;;17.60;99.90;;;;;;5036142;28;20030;-61
2022/09/02 05:31:01;;;;;;;14.07;3.63;;;17.60;99.90;;;;;;5035945;28;20049;-60
2022/09/02 05:33:28;;;;;;;13.82;4.40;;;17.60;99.90;;;;;;5019716;28;20162;-59
2022/09/02 05:35:55;;;;;;;10.82;3.70;;;17.60;99.90;;;;;;5035532;28;20025;-60
2022/09/02 05:38:21;;;;;;;13.63;3.55;;;17.70;99.90;;;;;;5034602;28;20034;-59
2022/09/02 05:40:48;;;;;;;9.10;3.40;;;17.70;99.90;;;;;;5034933;28;20038;-60
2022/09/02 05:43:15;;;;;;;13.30;4.15;;;17.80;99.90;;;;;;5030472;28;20030;-60
2022/09/02 05:45:42;;;;;;;15.65;4.75;;;17.80;99.90;;;;;;5025323;28;20272;-59
2022/09/02 05:50:55;;;;;;;11.02;3.47;;;17.80;99.90;;;;;;5025841;28;20077;-61
2022/09/02 05:53:25;;;;;;;9.75;4.22;;;17.80;99.90;;;;;;5019002;28;20036;-60
2022/09/02 05:55:52;;;;;;;12.77;4.43;;;17.80;99.90;;;;;;5035506;28;20072;-60
2022/09/02 05:58:20;;;;;;;15.32;4.63;;;17.80;99.90;;;;;;5035434;28;20038;-61
2022/09/02 06:00:46;;;;;;;11.98;4.03;;;17.70;99.90;;;;;;5035909;28;20045;-61
2022/09/02 06:03:13;;;;;;;8.98;3.35;;;17.70;99.90;;;;;;5002619;28;20025;-61
2022/09/02 06:05:41;;;;;;;13.02;3.88;;;17.80;99.90;;;;;;5028757;28;20029;-61
2022/09/02 06:08:08;;;;;;;10.43;3.35;;;17.80;99.90;;;;;;5035067;28;20037;-59
2022/09/02 06:10:41;;;;;;;12.20;3.30;;;17.90;99.90;;;;;;5035358;28;20046;-59
2022/09/02 06:13:10;;;;;;;15.20;2.95;;;17.90;99.90;;;;;;5018306;28;20034;-58
2022/09/02 06:15:42;;;;;;;16.58;3.72;;;18.00;99.90;;;;;;5002392;28;20098;-58
2022/09/02 06:18:11;;;;;;;11.25;3.08;;;18.00;99.90;;;;;;5035432;28;20029;-58
2022/09/02 06:20:41;;;;;;;15.48;3.40;;;18.10;99.90;;;;;;5018718;28;20033;-59
2022/09/02 06:23:08;;;;;;;13.10;3.53;;;18.10;99.90;;;;;;5018439;28;20038;-59
2022/09/02 06:25:37;;;;;;;14.02;3.75;;;18.20;99.90;;;;;;5002057;28;20030;-60
2022/09/02 06:28:03;;;;;;;13.40;3.92;;;18.20;99.90;;;;;;5017280;28;20038;-59
2022/09/02 06:30:33;;;;;;;11.05;3.30;;;18.20;99.90;;;;;;5005521;28;20033;-60
2022/09/02 06:33:03;;;;;;;8.45;3.17;;;18.20;99.90;;;;;;5038677;28;20038;-61
2022/09/02 06:35:33;;;;;;;13.23;3.65;;;18.20;99.90;;;;;;5038367;28;20034;-59
2022/09/02 06:38:00;;;;;;;13.35;3.47;;;18.30;99.90;;;;;;5037995;28;20049;-60
2022/09/02 06:40:27;;;;;;;10.15;3.35;;;18.30;99.90;;;;;;5038462;28;20088;-59
2022/09/02 06:42:55;;;;;;;9.65;3.60;;;18.30;99.90;;;;;;5038681;28;20097;-59
2022/09/02 06:45:24;;;;;;;19.58;3.80;;;18.30;99.90;;;;;;5021622;28;20064;-60
2022/09/02 06:47:52;;;;;;;9.40;3.33;;;18.40;99.90;;;;;;5004330;28;20045;-59
2022/09/02 06:50:19;;;;;;;11.65;3.60;;;18.40;99.90;;;;;;5027112;28;20334;-60
2022/09/02 06:52:46;;;;;;;12.80;3.47;;;18.40;99.90;;;;;;5005217;28;20070;-60
2022/09/02 06:55:13;;;;;;;14.85;3.58;;;18.50;99.90;;;;;;5038145;28;20061;-59
2022/09/02 06:57:40;;;;;;;14.20;4.32;;;18.50;99.90;;;;;;5021488;28;20049;-60
2022/09/02 07:00:08;;;;;;;18.90;4.90;;;18.50;99.90;;;;;;5038325;28;20048;-59
2022/09/02 07:02:35;;;;;;;8.93;3.38;;;18.60;99.90;;;;;;5020449;28;20042;-59
2022/09/02 07:05:08;;;;;;;16.65;4.60;;;18.60;99.90;;;;;;5037080;28;20070;-59
2022/09/02 07:07:36;;;;;;;20.92;6.07;;;18.60;99.90;;;;;;5022329;28;20034;-59
2022/09/02 07:10:04;;;;;;;11.85;3.92;;;18.70;99.90;;;;;;5038145;28;20038;-59
2022/09/02 07:12:33;;;;;;;18.98;4.22;;;18.70;99.90;;;;;;5005198;28;20040;-60
2022/09/02 07:15:00;;;;;;;9.95;3.00;;;18.70;99.90;;;;;;5037685;28;20109;-59
2022/09/02 07:17:27;;;;;;;15.60;3.90;;;18.70;99.90;;;;;;5005090;28;20048;-60
2022/09/02 07:19:58;;;;;;;23.40;4.55;;;18.70;99.90;;;;;;5021199;28;20041;-60
2022/09/02 07:22:28;;;;;;;24.38;4.38;;;18.70;99.90;;;;;;5021331;28;20073;-60
2022/09/02 07:24:55;;;;;;;11.32;3.75;;;18.70;99.90;;;;;;5014520;28;20080;-60
2022/09/02 07:27:22;;;;;;;13.25;3.35;;;18.70;99.90;;;;;;5018993;28;20069;-60
2022/09/02 07:29:48;;;;;;;10.43;3.60;;;18.80;99.90;;;;;;5019056;28;20034;-59
2022/09/02 07:32:16;;;;;;;16.15;4.05;;;18.80;99.90;;;;;;5035887;28;20065;-59
2022/09/02 07:34:42;;;;;;;15.95;3.78;;;18.80;99.90;;;;;;5018948;28;20049;-59
2022/09/02 07:37:09;;;;;;;19.52;4.78;;;18.80;99.90;;;;;;5035460;28;20042;-59
2022/09/02 07:39:37;;;;;;;14.05;4.25;;;19.00;99.90;;;;;;5037062;28;20034;-59
2022/09/02 07:42:04;;;;;;;14.25;5.50;;;19.00;99.90;;;;;;5019584;28;20054;-59
2022/09/02 07:44:33;;;;;;;13.63;4.45;;;19.00;99.90;;;;;;4668608;28;10000352;-59
2022/09/02 07:47:00;;;;;;;16.58;5.30;;;19.00;99.90;;;;;;5034375;28;20037;-59
2022/09/02 07:49:28;;;;;;;9.50;4.15;;;19.10;99.90;;;;;;5017701;28;20049;-59
2022/09/02 07:52:15;;;;;;;15.00;4.95;;;19.10;99.90;;;;;;5034150;28;20069;-60
2022/09/02 07:54:42;;;;;;;22.35;5.03;;;19.10;99.90;;;;;;5034059;28;20062;-60
2022/09/02 07:57:09;;;;;;;19.90;5.00;;;19.20;99.90;;;;;;5034203;28;20022;-58
2022/09/02 07:59:36;;;;;;;14.50;4.20;;;19.30;99.90;;;;;;5033640;28;20044;-59
2022/09/02 08:02:03;;;;;;;15.15;4.63;;;19.30;99.90;;;;;;5033021;28;20030;-59
2022/09/02 08:04:30;;;;;;;17.75;4.68;;;19.40;99.90;;;;;;4984348;28;20034;-59
2022/09/02 08:06:57;;;;;;;17.10;3.95;;;19.40;99.90;;;;;;5000029;28;20041;-60
2022/09/02 08:09:24;;;;;;;20.73;4.47;;;19.40;99.90;;;;;;5016348;28;20033;-60
2022/09/02 08:11:50;;;;;;;13.95;4.85;;;19.50;99.90;;;;;;5033564;28;20044;-59
2022/09/02 08:14:20;;;;;;;15.13;4.32;;;19.60;99.90;;;;;;5033773;28;20049;-59
2022/09/02 08:16:47;;;;;;;20.73;4.30;;;19.50;99.90;;;;;;5001443;28;20037;-58
2022/09/02 08:19:14;;;;;;;13.88;3.95;;;19.60;99.90;;;;;;5034174;28;20161;-58
2022/09/02 08:21:41;;;;;;;16.70;4.55;;;19.60;99.90;;;;;;5034455;28;20034;-59
2022/09/02 08:24:08;;;;;;;16.02;4.20;;;19.70;99.90;;;;;;5034340;28;20068;-60
2022/09/02 08:26:36;;;;;;;12.50;4.22;;;19.80;99.90;;;;;;5017010;28;20034;-58
2022/09/02 08:29:03;;;;;;;12.38;3.88;;;19.90;99.90;;;;;;5033949;28;20109;-61
2022/09/02 08:31:33;;;;;;;10.25;4.47;;;20.00;99.90;;;;;;5032569;28;20307;-59
2022/09/02 08:34:00;;;;;;;20.73;4.30;;;20.10;99.90;;;;;;5030982;28;20128;-59
2022/09/02 08:36:27;;;;;;;16.40;4.20;;;20.10;99.90;;;;;;5033343;28;20041;-59
2022/09/02 08:38:54;;;;;;;16.15;4.07;;;20.10;99.90;;;;;;5015822;28;20316;-60
2022/09/02 08:41:23;;;;;;;11.98;5.40;;;20.20;99.90;;;;;;5016998;28;20076;-59
2022/09/02 08:43:51;;;;;;;13.45;4.10;;;20.30;99.90;;;;;;4982835;28;20034;-60
2022/09/02 08:46:18;;;;;;;12.20;4.05;;;20.40;99.90;;;;;;5016200;28;20030;-60
2022/09/02 08:49:09;;;;;;;9.55;4.13;;;20.40;99.90;;;;;;5016071;28;20046;-58
2022/09/02 08:51:54;;;;;;;17.95;4.28;;;20.40;99.90;;;;;;5031098;28;20038;-59
2022/09/02 08:54:36;;;;;;;16.05;4.95;;;20.40;99.90;;;;;;4978673;28;20038;-58
2022/09/02 08:57:03;;;;;;;9.43;4.13;;;20.40;99.90;;;;;;5022713;28;20034;-59
2022/09/02 08:59:30;;;;;;;12.40;3.67;;;20.50;99.90;;;;;;5015908;28;20065;-59
2022/09/02 09:02:23;;;;;;;12.52;3.67;;;20.50;99.90;;;;;;5016016;28;20034;-60
2022/09/02 09:05:29;;;;;;;12.88;3.92;;;20.50;99.90;;;;;;5008100;28;20052;-60
2022/09/02 09:08:06;;;;;;;;;;;20.60;99.90;;;;;;5027952;28;20025;-58
2022/09/02 09:11:24;;;;;;;17.45;3.63;;;20.50;99.90;;;;;;5033417;28;19944;-58
2022/09/02 09:14:19;;;;;;;17.90;3.92;;;20.50;99.90;;;;;;4983588;28;20046;-60
2022/09/02 09:16:57;;;;;;;15.45;3.55;;;20.60;99.90;;;;;;5002793;28;20260;-59
2022/09/02 09:19:43;;;;;;;14.63;3.35;;;20.70;99.90;;;;;;5032542;28;20030;-59
2022/09/02 09:22:14;;;;;;;13.23;4.60;;;20.70;99.90;;;;;;5017375;28;20030;-59
2022/09/02 09:24:43;;;;;;;14.43;3.65;;;20.80;99.90;;;;;;5015723;28;20194;-58
2022/09/02 09:27:12;;;;;;;18.27;4.50;;;21.00;99.90;;;;;;4981643;28;20065;-60
2022/09/02 09:29:39;;;;;;;12.93;3.50;;;21.00;99.90;;;;;;4999497;28;20036;-60
2022/09/02 09:32:24;;;;;;;23.92;4.90;;;21.10;99.90;;;;;;5031192;28;20050;-60
2022/09/02 09:34:51;;;;;;;9.05;3.08;;;21.10;99.90;;;;;;5000273;28;20026;-57
2022/09/02 09:37:36;;;;;;;15.98;3.35;;;21.30;99.90;;;;;;5032435;28;20034;-60
2022/09/02 09:40:21;;;;;;;21.70;3.60;;;21.30;99.90;;;;;;5015543;28;20084;-59
2022/09/02 09:43:04;;;;;;;10.35;3.88;;;21.40;99.90;;;;;;5031582;28;20080;-59
2022/09/02 09:45:46;;;;;;;17.83;4.00;;;21.40;99.90;;;;;;5032167;28;20030;-57
2022/09/02 09:48:28;;;;;;;14.63;3.33;;;21.60;99.90;;;;;;5032589;28;20068;-58
2022/09/02 09:50:55;;;;;;;13.07;3.47;;;21.60;99.90;;;;;;5014957;28;20034;-58
2022/09/02 09:53:24;;;;;;;14.52;3.60;;;21.70;99.90;;;;;;5032191;28;20044;-59
2022/09/02 09:55:57;;;;;;;8.38;2.80;;;21.70;99.90;;;;;;5032058;28;20042;-61
2022/09/02 09:58:47;;;;;;;13.18;3.38;;;21.70;99.90;;;;;;5032418;28;20029;-59
2022/09/02 10:01:18;;;;;;;8.90;3.08;;;21.70;99.90;;;;;;5019839;28;20080;-59
2022/09/02 10:03:48;;;;;;;11.55;3.65;;;21.80;99.90;;;;;;5034030;28;20032;-59
2022/09/02 10:06:40;;;;;;;12.10;3.88;;;21.90;99.90;;;;;;5034894;28;20030;-58
2022/09/02 10:09:13;;;;;;;9.65;2.97;;;21.90;99.90;;;;;;5017893;28;20045;-59
2022/09/02 10:11:57;;;;;;;9.35;3.42;;;22.00;99.90;;;;;;5033671;28;20034;-59
2022/09/02 10:14:24;;;;;;;16.23;4.07;;;22.20;99.90;;;;;;5034283;28;20323;-59
2022/09/02 10:17:07;;;;;;;10.55;2.88;;;22.30;99.90;;;;;;5001632;28;20019;-58
2022/09/02 10:19:51;;;;;;;13.57;2.80;;;22.40;99.90;;;;;;5038066;28;20068;-57
2022/09/02 10:22:27;;;;;;;17.98;2.90;;;22.30;99.90;;;;;;5003194;28;20064;-60
2022/09/02 10:25:40;;;;;;;8.80;2.78;;;22.40;99.90;;;;;;5033179;28;20040;-58
2022/09/02 10:28:31;;;;;;;11.40;2.78;;;22.40;99.90;;;;;;5034437;28;20076;-54
2022/09/02 10:31:07;;;;;;;11.32;2.70;;;22.40;99.90;;;;;;5018215;28;20030;-58
2022/09/02 10:33:56;;;;;;;11.48;3.30;;;22.40;99.90;;;;;;5032596;28;20088;-59
2022/09/02 10:36:35;;;;;;;9.20;2.97;;;22.50;99.90;;;;;;5016972;28;20037;-58
2022/09/02 10:39:38;;;;;;;12.60;2.60;;;22.60;99.90;;;;;;5033413;28;20034;-58
2022/09/02 10:42:30;;;;;;;7.53;2.15;;;22.60;99.90;;;;;;5005479;28;20034;-57
2022/09/02 10:45:24;;;;;;;9.18;2.63;;;22.70;99.90;;;;;;5035115;28;20037;-58
2022/09/02 10:48:08;;;;;;;9.00;3.00;;;22.70;99.90;;;;;;5036035;28;20076;-59
2022/09/02 10:50:48;;;;;;;10.25;2.58;;;22.80;99.90;;;;;;5006667;28;20031;-59
2022/09/02 10:53:25;;;;;;;11.73;3.35;;;22.80;99.90;;;;;;5019930;28;20117;-59
2022/09/02 10:56:13;;;;;;;12.60;3.22;;;22.70;99.90;;;;;;5002230;28;20049;-59
2022/09/02 10:58:53;;;;;;;16.45;3.53;;;22.80;99.90;;;;;;5020184;28;20053;-57
2022/09/02 11:01:32;;;;;;;14.45;3.88;;;22.80;99.90;;;;;;5005070;28;20137;-58
2022/09/02 11:04:36;;;;;;;8.45;2.67;;;22.80;99.90;;;;;;4989130;28;20026;-59
2022/09/02 11:07:03;;;;;;;11.20;2.60;;;22.80;99.90;;;;;;5022958;28;20052;-58
2022/09/02 11:09:43;;;;;;;6.45;2.58;;;22.90;99.90;;;;;;5003977;28;20084;-59
2022/09/02 11:12:15;;;;;;;10.82;2.40;;;22.90;99.90;;;;;;5020799;28;20034;-58
2022/09/02 11:14:54;;;;;;;18.83;3.33;;;23.00;99.90;;;;;;5019466;28;20049;-59
2022/09/02 11:17:30;;;;;;;9.02;3.72;;;23.00;99.90;;;;;;5037378;28;20080;-58
2022/09/02 11:20:35;;;;;;;14.13;2.88;;;23.00;99.90;;;;;;5019881;28;20074;-58
2022/09/02 11:23:26;;;;;;;10.23;2.70;;;23.10;99.90;;;;;;5036232;28;20033;-58
2022/09/02 11:26:20;;;;;;;16.63;3.05;;;23.20;99.90;;;;;;5036167;28;20060;-58
2022/09/02 11:29:06;;;;;;;9.18;2.33;;;23.30;99.90;;;;;;5020971;28;20030;-60
2022/09/02 11:32:08;;;;;;;12.00;2.90;;;23.40;99.90;;;;;;5021056;28;20029;-58
2022/09/02 11:34:40;;;;;;;7.93;2.65;;;23.40;99.90;;;;;;5023028;28;20026;-59
2022/09/02 11:37:12;;;;;;;10.02;2.83;;;23.50;99.90;;;;;;5004371;28;20041;-58
2022/09/02 11:39:46;;;;;;;7.68;2.40;;;23.60;99.90;;;;;;5021585;28;20030;-59
2022/09/02 11:42:51;;;;;;;12.35;3.22;;;23.70;99.90;;;;;;5012407;28;20030;-58
2022/09/02 11:45:39;;;;;;;11.50;2.28;;;23.80;98.70;;;;;;5010940;28;20072;-58
2022/09/02 11:48:06;;;;;;;14.00;4.28;;;23.80;99.90;;;;;;5037243;28;20033;-59
2022/09/02 11:51:00;;;;;;;10.63;3.38;;;23.80;99.90;;;;;;5037124;28;20026;-58
2022/09/02 11:53:33;;;;;;;14.00;2.58;;;23.80;99.80;;;;;;5006155;28;20026;-58
2022/09/02 11:56:24;;;;;;;10.70;3.75;;;23.90;99.90;;;;;;5004439;28;20034;-58
2022/09/02 11:58:52;;;;;;;8.43;2.55;;;24.00;99.10;;;;;;5020949;28;20034;-59
2022/09/02 12:01:36;;;;;;;13.48;2.60;;;24.00;99.90;;;;;;5036866;28;20042;-59
2022/09/02 12:04:12;;;;;;;31.23;4.13;;;24.10;99.90;;;;;;5021110;28;20044;-58
2022/09/02 12:07:07;;;;;;;7.68;3.20;;;24.30;99.90;;;;;;5036692;28;20030;-58
2022/09/02 12:09:45;;;;;;;16.38;3.47;;;24.50;99.60;;;;;;5036914;28;20128;-58
2022/09/02 12:12:35;;;;;;;5.85;2.42;;;24.60;99.20;;;;;;5036392;28;20033;-58
2022/09/02 12:15:05;;;;;;;10.02;3.17;;;24.60;95.30;;;;;;5033124;28;20093;-58
2022/09/02 12:17:50;;;;;;;14.57;3.10;;;24.60;97.50;;;;;;5019295;28;20037;-58
2022/09/02 12:20:56;;;;;;;7.15;2.97;;;24.60;97.50;;;;;;5034173;28;20065;-58
2022/09/02 12:23:48;;;;;;;9.65;3.25;;;24.60;95.10;;;;;;4996683;28;20065;-59
2022/09/02 12:26:16;;;;;;;12.10;2.90;;;24.60;97.00;;;;;;5036598;28;20040;-57
2022/09/02 12:28:46;;;;;;;16.55;3.88;;;24.60;99.50;;;;;;5020065;28;20068;-58
2022/09/02 12:31:17;;;;;;;11.38;3.22;;;24.60;99.80;;;;;;4999640;28;20061;-56
2022/09/02 12:33:50;;;;;;;6.97;3.03;;;24.60;98.10;;;;;;5005572;28;20046;-57
2022/09/02 12:36:35;;;;;;;11.35;3.72;;;24.60;99.70;;;;;;5019318;28;20018;-59
2022/09/02 12:39:33;;;;;;;6.43;3.10;;;24.50;96.10;;;;;;5016552;28;20026;-58
2022/09/02 12:42:09;;;;;;;9.48;2.88;;;24.40;97.10;;;;;;5024916;28;20030;-58
2022/09/02 12:44:45;;;;;;;7.28;3.08;;;24.40;98.70;;;;;;5025933;28;20022;-59
2022/09/02 12:47:18;;;;;;;7.90;3.17;;;24.40;99.30;;;;;;5008679;28;20029;-59
2022/09/02 12:50:07;;;;;;;8.75;3.67;;;24.50;99.90;;;;;;5025496;28;20132;-59
2022/09/02 12:52:39;;;;;;;11.23;4.40;;;24.40;99.20;;;;;;5026972;28;20093;-59
2022/09/02 12:55:28;;;;;;;11.45;3.50;;;24.40;99.90;;;;;;5036633;28;20038;-57
2022/09/02 12:58:08;;;;;;;9.57;3.75;;;24.40;99.80;;;;;;4685955;28;10000565;-57
2022/09/02 13:00:45;;;;;;;13.23;4.35;;;24.30;98.30;;;;;;5036211;28;20037;-58
2022/09/02 13:03:30;;;;;;;12.00;3.70;;;24.20;96.90;;;;;;5035860;28;20050;-59
2022/09/02 13:06:12;;;;;;;10.65;4.05;;;24.20;99.90;;;;;;5036248;28;20053;-59
2022/09/02 13:09:03;;;;;;;20.85;4.82;;;24.20;98.40;;;;;;5036007;28;20057;-58
2022/09/02 13:11:35;;;;;;;41.97;4.70;;;24.30;97.00;;;;;;5036039;28;20034;-58